Lewis, Iowa
Current Conditions -  °F | °C
As of 10:55 AM on Sunday 21 Dec 2014 (Local Time) from KAIO Reporting Station
Haze Haze  
Wind Chill: 30°   Ceiling: 800
Heat Index: 39°   Visibility: 5mi
Dew Point: 37°   Wind: 16mph
Humidity: 93%   Direction: 200°SSW
Pressure: 29.88"   Gusts: NA
Location:  41.31°N, 95.08°W
Report Text: KAIO 211655Z AUTO 20014KT 5SM BR OVC008 04/03 A2988 RMK AO2
Loading
Personal Weather Stations






























Interactive Weather Map New forecast layout! Learn more

10-Day Weather Forecast

Advertisements
Track Severe Weather on mobile